sensor_id;sensor_type;location;lat;lon;timestamp;P1;durP1;ratioP1;P2;durP2;ratioP2
635;SDS011;302;50.206;8.196;2023-05-23T00:02:04;23.90;;;21.47;;
635;SDS011;302;50.206;8.196;2023-05-23T00:04:32;24.30;;;21.80;;
635;SDS011;302;50.206;8.196;2023-05-23T00:06:57;23.53;;;21.07;;
635;SDS011;302;50.206;8.196;2023-05-23T00:09:22;23.10;;;20.77;;
635;SDS011;302;50.206;8.196;2023-05-23T00:11:48;25.08;;;22.40;;
635;SDS011;302;50.206;8.196;2023-05-23T00:14:13;25.80;;;23.13;;
635;SDS011;302;50.206;8.196;2023-05-23T00:16:39;24.30;;;21.50;;
635;SDS011;302;50.206;8.196;2023-05-23T00:19:05;24.15;;;21.58;;
635;SDS011;302;50.206;8.196;2023-05-23T00:21:30;24.40;;;21.90;;
635;SDS011;302;50.206;8.196;2023-05-23T00:23:56;25.90;;;23.20;;
635;SDS011;302;50.206;8.196;2023-05-23T00:26:22;28.33;;;25.23;;
635;SDS011;302;50.206;8.196;2023-05-23T00:28:48;30.37;;;26.63;;
635;SDS011;302;50.206;8.196;2023-05-23T00:31:13;26.67;;;23.87;;
635;SDS011;302;50.206;8.196;2023-05-23T00:33:38;27.00;;;24.10;;
635;SDS011;302;50.206;8.196;2023-05-23T00:36:03;27.90;;;25.00;;
635;SDS011;302;50.206;8.196;2023-05-23T00:38:28;27.43;;;24.47;;
635;SDS011;302;50.206;8.196;2023-05-23T00:40:54;29.97;;;25.40;;
635;SDS011;302;50.206;8.196;2023-05-23T00:43:19;29.03;;;25.90;;
635;SDS011;302;50.206;8.196;2023-05-23T00:45:47;29.30;;;24.85;;
635;SDS011;302;50.206;8.196;2023-05-23T00:48:12;28.70;;;25.63;;
635;SDS011;302;50.206;8.196;2023-05-23T00:50:37;28.13;;;25.17;;
635;SDS011;302;50.206;8.196;2023-05-23T00:53:02;28.02;;;25.00;;
635;SDS011;302;50.206;8.196;2023-05-23T00:55:27;28.60;;;25.13;;
635;SDS011;302;50.206;8.196;2023-05-23T00:57:53;29.23;;;26.03;;
635;SDS011;302;50.206;8.196;2023-05-23T01:00:20;26.55;;;23.75;;
635;SDS011;302;50.206;8.196;2023-05-23T01:02:47;26.90;;;24.05;;
635;SDS011;302;50.206;8.196;2023-05-23T01:05:15;27.30;;;24.40;;
635;SDS011;302;50.206;8.196;2023-05-23T01:07:41;26.05;;;22.95;;
635;SDS011;302;50.206;8.196;2023-05-23T01:10:07;25.20;;;22.70;;
635;SDS011;302;50.206;8.196;2023-05-23T01:12:37;24.40;;;21.17;;
635;SDS011;302;50.206;8.196;2023-05-23T01:15:12;23.17;;;20.58;;
635;SDS011;302;50.206;8.196;2023-05-23T01:20:18;23.42;;;21.02;;
635;SDS011;302;50.206;8.196;2023-05-23T01:22:53;21.48;;;19.27;;
635;SDS011;302;50.206;8.196;2023-05-23T01:28:11;21.80;;;19.50;;
635;SDS011;302;50.206;8.196;2023-05-23T01:30:39;21.75;;;19.48;;
635;SDS011;302;50.206;8.196;2023-05-23T01:33:05;20.85;;;18.58;;
635;SDS011;302;50.206;8.196;2023-05-23T01:35:31;20.48;;;17.83;;
635;SDS011;302;50.206;8.196;2023-05-23T01:37:57;19.17;;;17.27;;
635;SDS011;302;50.206;8.196;2023-05-23T01:40:22;18.60;;;16.67;;
635;SDS011;302;50.206;8.196;2023-05-23T01:42:48;21.00;;;18.80;;
635;SDS011;302;50.206;8.196;2023-05-23T01:45:14;19.73;;;17.73;;
635;SDS011;302;50.206;8.196;2023-05-23T01:47:39;19.23;;;17.07;;
635;SDS011;302;50.206;8.196;2023-05-23T01:50:05;18.27;;;16.30;;
635;SDS011;302;50.206;8.196;2023-05-23T01:52:31;20.07;;;17.30;;
635;SDS011;302;50.206;8.196;2023-05-23T01:54:56;18.90;;;16.90;;
635;SDS011;302;50.206;8.196;2023-05-23T01:57:21;20.97;;;18.77;;
635;SDS011;302;50.206;8.196;2023-05-23T01:59:46;19.00;;;16.87;;
635;SDS011;302;50.206;8.196;2023-05-23T02:02:11;17.30;;;15.43;;
635;SDS011;302;50.206;8.196;2023-05-23T02:04:37;19.87;;;17.77;;
635;SDS011;302;50.206;8.196;2023-05-23T02:07:02;18.98;;;16.98;;
635;SDS011;302;50.206;8.196;2023-05-23T02:09:27;21.00;;;17.03;;
635;SDS011;302;50.206;8.196;2023-05-23T02:11:52;17.98;;;16.15;;
635;SDS011;302;50.206;8.196;2023-05-23T02:14:18;19.50;;;16.80;;
635;SDS011;302;50.206;8.196;2023-05-23T02:16:43;17.77;;;15.87;;
635;SDS011;302;50.206;8.196;2023-05-23T02:19:09;18.42;;;16.55;;
635;SDS011;302;50.206;8.196;2023-05-23T02:21:34;18.88;;;16.90;;
635;SDS011;302;50.206;8.196;2023-05-23T02:23:59;17.77;;;15.90;;
635;SDS011;302;50.206;8.196;2023-05-23T02:26:25;20.00;;;16.90;;
635;SDS011;302;50.206;8.196;2023-05-23T02:28:51;17.60;;;15.77;;
635;SDS011;302;50.206;8.196;2023-05-23T02:31:16;18.65;;;15.98;;
635;SDS011;302;50.206;8.196;2023-05-23T02:33:41;20.40;;;17.47;;
635;SDS011;302;50.206;8.196;2023-05-23T02:36:06;22.00;;;18.75;;
635;SDS011;302;50.206;8.196;2023-05-23T02:38:32;20.53;;;18.33;;
635;SDS011;302;50.206;8.196;2023-05-23T02:40:57;19.17;;;17.05;;
635;SDS011;302;50.206;8.196;2023-05-23T02:43:22;20.67;;;18.27;;
635;SDS011;302;50.206;8.196;2023-05-23T02:45:47;23.40;;;18.40;;
635;SDS011;302;50.206;8.196;2023-05-23T02:48:13;24.57;;;21.10;;
635;SDS011;302;50.206;8.196;2023-05-23T02:50:38;22.20;;;19.80;;
635;SDS011;302;50.206;8.196;2023-05-23T02:53:03;24.37;;;20.60;;
635;SDS011;302;50.206;8.196;2023-05-23T02:55:28;22.85;;;19.35;;
635;SDS011;302;50.206;8.196;2023-05-23T02:57:55;23.63;;;20.00;;
635;SDS011;302;50.206;8.196;2023-05-23T03:00:24;23.05;;;19.90;;
635;SDS011;302;50.206;8.196;2023-05-23T03:02:50;23.60;;;20.30;;
635;SDS011;302;50.206;8.196;2023-05-23T03:05:15;25.17;;;20.13;;
635;SDS011;302;50.206;8.196;2023-05-23T03:07:40;28.97;;;20.47;;
635;SDS011;302;50.206;8.196;2023-05-23T03:10:05;26.75;;;22.40;;
635;SDS011;302;50.206;8.196;2023-05-23T03:12:31;28.60;;;23.17;;
635;SDS011;302;50.206;8.196;2023-05-23T03:14:56;29.07;;;23.47;;
635;SDS011;302;50.206;8.196;2023-05-23T03:17:23;27.50;;;22.17;;
635;SDS011;302;50.206;8.196;2023-05-23T03:19:48;23.65;;;21.15;;
635;SDS011;302;50.206;8.196;2023-05-23T03:22:14;26.13;;;21.50;;
635;SDS011;302;50.206;8.196;2023-05-23T03:24:39;26.13;;;21.98;;
635;SDS011;302;50.206;8.196;2023-05-23T03:27:04;27.27;;;22.60;;
635;SDS011;302;50.206;8.196;2023-05-23T03:29:29;30.20;;;22.20;;
635;SDS011;302;50.206;8.196;2023-05-23T03:31:54;27.15;;;21.33;;
635;SDS011;302;50.206;8.196;2023-05-23T03:34:20;25.13;;;21.47;;
635;SDS011;302;50.206;8.196;2023-05-23T03:36:47;25.40;;;22.55;;
635;SDS011;302;50.206;8.196;2023-05-23T03:39:13;23.30;;;19.30;;
635;SDS011;302;50.206;8.196;2023-05-23T03:41:38;24.37;;;20.50;;
635;SDS011;302;50.206;8.196;2023-05-23T03:44:03;24.48;;;19.92;;
635;SDS011;302;50.206;8.196;2023-05-23T03:46:28;23.73;;;20.02;;
635;SDS011;302;50.206;8.196;2023-05-23T03:48:53;22.67;;;19.30;;
635;SDS011;302;50.206;8.196;2023-05-23T03:51:18;24.17;;;20.02;;
635;SDS011;302;50.206;8.196;2023-05-23T03:53:43;22.27;;;19.43;;
635;SDS011;302;50.206;8.196;2023-05-23T03:56:09;23.07;;;19.30;;
635;SDS011;302;50.206;8.196;2023-05-23T03:58:34;21.80;;;17.77;;
635;SDS011;302;50.206;8.196;2023-05-23T04:00:59;21.67;;;18.88;;
635;SDS011;302;50.206;8.196;2023-05-23T04:03:25;19.10;;;16.35;;
635;SDS011;302;50.206;8.196;2023-05-23T04:05:51;16.30;;;14.60;;
635;SDS011;302;50.206;8.196;2023-05-23T04:08:16;18.53;;;16.60;;
635;SDS011;302;50.206;8.196;2023-05-23T04:10:41;18.00;;;16.07;;
635;SDS011;302;50.206;8.196;2023-05-23T04:13:06;17.70;;;15.70;;
635;SDS011;302;50.206;8.196;2023-05-23T04:15:33;17.33;;;15.30;;
635;SDS011;302;50.206;8.196;2023-05-23T04:17:59;17.87;;;16.00;;
635;SDS011;302;50.206;8.196;2023-05-23T04:20:24;18.37;;;15.60;;
635;SDS011;302;50.206;8.196;2023-05-23T04:22:51;16.05;;;14.52;;
635;SDS011;302;50.206;8.196;2023-05-23T04:25:16;16.67;;;14.85;;
635;SDS011;302;50.206;8.196;2023-05-23T04:27:43;16.80;;;15.05;;
635;SDS011;302;50.206;8.196;2023-05-23T04:30:08;17.53;;;15.53;;
635;SDS011;302;50.206;8.196;2023-05-23T04:32:34;16.70;;;14.90;;
635;SDS011;302;50.206;8.196;2023-05-23T04:34:59;15.07;;;13.57;;
635;SDS011;302;50.206;8.196;2023-05-23T04:37:26;14.48;;;12.95;;
635;SDS011;302;50.206;8.196;2023-05-23T04:39:51;15.13;;;13.73;;
635;SDS011;302;50.206;8.196;2023-05-23T04:42:17;14.03;;;12.63;;
635;SDS011;302;50.206;8.196;2023-05-23T04:44:42;14.97;;;12.97;;
635;SDS011;302;50.206;8.196;2023-05-23T04:47:07;14.47;;;12.97;;
635;SDS011;302;50.206;8.196;2023-05-23T04:49:34;16.23;;;14.53;;
635;SDS011;302;50.206;8.196;2023-05-23T04:52:00;13.95;;;12.57;;
635;SDS011;302;50.206;8.196;2023-05-23T04:54:25;14.37;;;12.97;;
635;SDS011;302;50.206;8.196;2023-05-23T04:56:51;13.83;;;12.47;;
635;SDS011;302;50.206;8.196;2023-05-23T04:59:16;13.63;;;12.30;;
635;SDS011;302;50.206;8.196;2023-05-23T05:01:41;14.02;;;12.68;;
635;SDS011;302;50.206;8.196;2023-05-23T05:04:06;14.73;;;13.30;;
635;SDS011;302;50.206;8.196;2023-05-23T05:06:31;15.33;;;13.73;;
635;SDS011;302;50.206;8.196;2023-05-23T05:08:57;13.70;;;12.30;;
635;SDS011;302;50.206;8.196;2023-05-23T05:11:22;14.20;;;12.80;;
635;SDS011;302;50.206;8.196;2023-05-23T05:13:47;14.77;;;11.63;;
635;SDS011;302;50.206;8.196;2023-05-23T05:16:13;14.95;;;13.35;;
635;SDS011;302;50.206;8.196;2023-05-23T05:18:38;14.10;;;12.70;;
635;SDS011;302;50.206;8.196;2023-05-23T05:21:03;14.10;;;12.70;;
635;SDS011;302;50.206;8.196;2023-05-23T05:23:29;14.63;;;13.07;;
635;SDS011;302;50.206;8.196;2023-05-23T05:25:55;15.50;;;14.00;;
635;SDS011;302;50.206;8.196;2023-05-23T05:28:20;14.13;;;12.83;;
635;SDS011;302;50.206;8.196;2023-05-23T05:30:45;14.43;;;13.02;;
635;SDS011;302;50.206;8.196;2023-05-23T05:33:12;14.95;;;13.55;;
635;SDS011;302;50.206;8.196;2023-05-23T05:35:37;14.17;;;12.83;;
635;SDS011;302;50.206;8.196;2023-05-23T05:38:02;13.55;;;12.15;;
635;SDS011;302;50.206;8.196;2023-05-23T05:40:28;14.30;;;12.87;;
635;SDS011;302;50.206;8.196;2023-05-23T05:42:53;15.47;;;13.97;;
635;SDS011;302;50.206;8.196;2023-05-23T05:45:19;15.13;;;13.63;;
635;SDS011;302;50.206;8.196;2023-05-23T05:47:44;13.57;;;12.17;;
635;SDS011;302;50.206;8.196;2023-05-23T05:50:10;14.10;;;12.70;;
635;SDS011;302;50.206;8.196;2023-05-23T05:52:35;14.53;;;13.13;;
635;SDS011;302;50.206;8.196;2023-05-23T05:55:04;12.60;;;11.40;;
635;SDS011;302;50.206;8.196;2023-05-23T05:57:30;12.90;;;11.70;;
635;SDS011;302;50.206;8.196;2023-05-23T05:59:55;12.25;;;11.05;;
635;SDS011;302;50.206;8.196;2023-05-23T06:02:20;13.55;;;12.23;;
635;SDS011;302;50.206;8.196;2023-05-23T06:04:46;12.90;;;11.67;;
635;SDS011;302;50.206;8.196;2023-05-23T06:07:11;12.00;;;10.90;;
635;SDS011;302;50.206;8.196;2023-05-23T06:09:36;12.50;;;11.38;;
635;SDS011;302;50.206;8.196;2023-05-23T06:12:01;11.65;;;10.63;;
635;SDS011;302;50.206;8.196;2023-05-23T06:14:26;11.97;;;10.87;;
635;SDS011;302;50.206;8.196;2023-05-23T06:16:52;11.00;;;9.90;;
635;SDS011;302;50.206;8.196;2023-05-23T06:19:17;10.77;;;9.77;;
635;SDS011;302;50.206;8.196;2023-05-23T06:21:42;11.05;;;10.05;;
635;SDS011;302;50.206;8.196;2023-05-23T06:24:07;10.77;;;9.47;;
635;SDS011;302;50.206;8.196;2023-05-23T06:26:32;10.57;;;9.63;;
635;SDS011;302;50.206;8.196;2023-05-23T06:28:57;11.10;;;9.70;;
635;SDS011;302;50.206;8.196;2023-05-23T06:31:22;10.40;;;9.40;;
635;SDS011;302;50.206;8.196;2023-05-23T06:33:48;9.73;;;8.83;;
635;SDS011;302;50.206;8.196;2023-05-23T06:36:13;9.50;;;8.70;;
635;SDS011;302;50.206;8.196;2023-05-23T06:38:38;9.40;;;8.50;;
635;SDS011;302;50.206;8.196;2023-05-23T06:41:03;9.35;;;8.55;;
635;SDS011;302;50.206;8.196;2023-05-23T06:43:30;9.60;;;8.70;;
635;SDS011;302;50.206;8.196;2023-05-23T06:45:56;9.18;;;8.38;;
635;SDS011;302;50.206;8.196;2023-05-23T06:48:21;8.90;;;8.10;;
635;SDS011;302;50.206;8.196;2023-05-23T06:50:46;8.80;;;8.00;;
635;SDS011;302;50.206;8.196;2023-05-23T06:53:11;8.10;;;7.40;;
635;SDS011;302;50.206;8.196;2023-05-23T06:55:36;9.10;;;8.30;;
635;SDS011;302;50.206;8.196;2023-05-23T06:58:01;9.55;;;7.75;;
635;SDS011;302;50.206;8.196;2023-05-23T07:00:30;8.75;;;8.05;;
635;SDS011;302;50.206;8.196;2023-05-23T07:02:55;9.57;;;8.77;;
635;SDS011;302;50.206;8.196;2023-05-23T07:05:24;8.43;;;7.65;;
635;SDS011;302;50.206;8.196;2023-05-23T07:07:50;8.47;;;7.77;;
635;SDS011;302;50.206;8.196;2023-05-23T07:10:15;8.00;;;7.30;;
635;SDS011;302;50.206;8.196;2023-05-23T07:12:40;7.30;;;6.70;;
635;SDS011;302;50.206;8.196;2023-05-23T07:15:05;7.30;;;6.70;;
635;SDS011;302;50.206;8.196;2023-05-23T07:17:31;7.57;;;6.97;;
635;SDS011;302;50.206;8.196;2023-05-23T07:19:56;7.60;;;7.00;;
635;SDS011;302;50.206;8.196;2023-05-23T07:22:21;7.70;;;7.00;;
635;SDS011;302;50.206;8.196;2023-05-23T07:24:46;7.18;;;6.57;;
635;SDS011;302;50.206;8.196;2023-05-23T07:27:11;7.75;;;7.05;;
635;SDS011;302;50.206;8.196;2023-05-23T07:29:37;8.03;;;7.43;;
635;SDS011;302;50.206;8.196;2023-05-23T07:32:02;8.87;;;8.17;;
635;SDS011;302;50.206;8.196;2023-05-23T07:34:27;6.77;;;6.23;;
635;SDS011;302;50.206;8.196;2023-05-23T07:36:53;8.63;;;7.70;;
635;SDS011;302;50.206;8.196;2023-05-23T07:39:18;8.50;;;7.70;;
635;SDS011;302;50.206;8.196;2023-05-23T07:41:48;8.75;;;8.05;;
635;SDS011;302;50.206;8.196;2023-05-23T07:44:14;8.37;;;7.57;;
635;SDS011;302;50.206;8.196;2023-05-23T07:46:39;8.82;;;8.02;;
635;SDS011;302;50.206;8.196;2023-05-23T07:49:04;9.33;;;8.63;;
635;SDS011;302;50.206;8.196;2023-05-23T07:51:30;9.00;;;8.30;;
635;SDS011;302;50.206;8.196;2023-05-23T07:53:55;10.20;;;9.30;;
635;SDS011;302;50.206;8.196;2023-05-23T07:56:20;8.85;;;8.15;;
635;SDS011;302;50.206;8.196;2023-05-23T07:58:45;8.20;;;7.60;;
635;SDS011;302;50.206;8.196;2023-05-23T08:01:11;7.90;;;7.20;;
635;SDS011;302;50.206;8.196;2023-05-23T08:03:36;7.60;;;7.00;;
635;SDS011;302;50.206;8.196;2023-05-23T08:06:01;8.43;;;7.80;;
635;SDS011;302;50.206;8.196;2023-05-23T08:08:26;8.90;;;8.20;;
635;SDS011;302;50.206;8.196;2023-05-23T08:10:52;7.28;;;6.78;;
635;SDS011;302;50.206;8.196;2023-05-23T08:13:17;8.27;;;7.57;;
635;SDS011;302;50.206;8.196;2023-05-23T08:15:42;7.38;;;6.78;;
635;SDS011;302;50.206;8.196;2023-05-23T08:18:07;6.70;;;6.20;;
635;SDS011;302;50.206;8.196;2023-05-23T08:20:32;7.90;;;7.30;;
635;SDS011;302;50.206;8.196;2023-05-23T08:22:58;7.53;;;6.97;;
635;SDS011;302;50.206;8.196;2023-05-23T08:25:23;7.30;;;6.80;;
635;SDS011;302;50.206;8.196;2023-05-23T08:27:49;7.37;;;6.70;;
635;SDS011;302;50.206;8.196;2023-05-23T08:30:14;7.90;;;7.37;;
635;SDS011;302;50.206;8.196;2023-05-23T08:32:39;7.00;;;6.40;;
635;SDS011;302;50.206;8.196;2023-05-23T08:35:05;6.03;;;5.63;;
635;SDS011;302;50.206;8.196;2023-05-23T08:37:30;6.37;;;5.87;;
635;SDS011;302;50.206;8.196;2023-05-23T08:39:55;6.10;;;5.60;;
635;SDS011;302;50.206;8.196;2023-05-23T08:42:20;6.45;;;5.95;;
635;SDS011;302;50.206;8.196;2023-05-23T08:44:45;6.93;;;6.33;;
635;SDS011;302;50.206;8.196;2023-05-23T08:47:11;8.43;;;6.90;;
635;SDS011;302;50.206;8.196;2023-05-23T08:49:41;7.32;;;6.82;;
635;SDS011;302;50.206;8.196;2023-05-23T08:52:06;8.53;;;7.83;;
635;SDS011;302;50.206;8.196;2023-05-23T08:54:34;8.35;;;7.65;;
635;SDS011;302;50.206;8.196;2023-05-23T08:56:59;8.47;;;7.77;;
635;SDS011;302;50.206;8.196;2023-05-23T08:59:26;7.75;;;7.15;;
635;SDS011;302;50.206;8.196;2023-05-23T09:01:51;10.30;;;9.47;;
635;SDS011;302;50.206;8.196;2023-05-23T09:04:19;8.00;;;7.30;;
635;SDS011;302;50.206;8.196;2023-05-23T09:06:44;8.98;;;8.27;;
635;SDS011;302;50.206;8.196;2023-05-23T09:09:09;8.53;;;7.80;;
635;SDS011;302;50.206;8.196;2023-05-23T09:11:34;10.10;;;9.23;;
635;SDS011;302;50.206;8.196;2023-05-23T09:13:59;8.57;;;7.88;;
635;SDS011;302;50.206;8.196;2023-05-23T09:16:30;9.73;;;7.73;;
635;SDS011;302;50.206;8.196;2023-05-23T09:18:55;8.90;;;8.10;;
635;SDS011;302;50.206;8.196;2023-05-23T09:21:21;8.50;;;7.77;;
635;SDS011;302;50.206;8.196;2023-05-23T09:23:48;8.07;;;7.40;;
635;SDS011;302;50.206;8.196;2023-05-23T09:26:14;9.37;;;8.57;;
635;SDS011;302;50.206;8.196;2023-05-23T09:28:41;10.27;;;9.27;;
635;SDS011;302;50.206;8.196;2023-05-23T09:31:07;10.65;;;9.65;;
635;SDS011;302;50.206;8.196;2023-05-23T09:33:37;9.60;;;8.70;;
635;SDS011;302;50.206;8.196;2023-05-23T09:36:03;10.80;;;9.82;;
635;SDS011;302;50.206;8.196;2023-05-23T09:38:29;11.30;;;10.30;;
635;SDS011;302;50.206;8.196;2023-05-23T09:40:54;10.43;;;9.43;;
635;SDS011;302;50.206;8.196;2023-05-23T09:43:22;10.68;;;9.63;;
635;SDS011;302;50.206;8.196;2023-05-23T09:45:47;10.90;;;9.90;;
635;SDS011;302;50.206;8.196;2023-05-23T09:48:12;11.43;;;10.40;;
635;SDS011;302;50.206;8.196;2023-05-23T09:50:38;11.53;;;10.43;;
635;SDS011;302;50.206;8.196;2023-05-23T09:53:03;11.00;;;9.97;;
635;SDS011;302;50.206;8.196;2023-05-23T09:55:29;11.03;;;10.13;;
635;SDS011;302;50.206;8.196;2023-05-23T09:57:54;9.97;;;9.07;;
635;SDS011;302;50.206;8.196;2023-05-23T10:00:22;10.10;;;9.20;;
635;SDS011;302;50.206;8.196;2023-05-23T10:05:22;9.88;;;9.07;;
635;SDS011;302;50.206;8.196;2023-05-23T10:07:51;10.43;;;9.52;;
635;SDS011;302;50.206;8.196;2023-05-23T10:10:16;10.37;;;9.53;;
635;SDS011;302;50.206;8.196;2023-05-23T10:12:48;9.70;;;8.80;;
635;SDS011;302;50.206;8.196;2023-05-23T10:15:14;11.18;;;10.02;;
635;SDS011;302;50.206;8.196;2023-05-23T10:20:18;9.80;;;8.80;;
635;SDS011;302;50.206;8.196;2023-05-23T10:22:46;9.40;;;8.60;;
635;SDS011;302;50.206;8.196;2023-05-23T10:25:12;10.00;;;9.10;;
635;SDS011;302;50.206;8.196;2023-05-23T10:27:38;8.68;;;7.88;;
635;SDS011;302;50.206;8.196;2023-05-23T10:30:04;9.00;;;8.20;;
635;SDS011;302;50.206;8.196;2023-05-23T10:32:30;8.13;;;7.28;;
635;SDS011;302;50.206;8.196;2023-05-23T10:35:00;8.40;;;7.60;;
635;SDS011;302;50.206;8.196;2023-05-23T10:37:39;7.65;;;6.88;;
635;SDS011;302;50.206;8.196;2023-05-23T10:40:10;8.45;;;7.55;;
635;SDS011;302;50.206;8.196;2023-05-23T10:45:18;8.43;;;7.63;;
635;SDS011;302;50.206;8.196;2023-05-23T10:47:43;7.10;;;6.50;;
635;SDS011;302;50.206;8.196;2023-05-23T10:50:16;8.27;;;7.43;;
635;SDS011;302;50.206;8.196;2023-05-23T10:52:53;8.02;;;7.20;;
635;SDS011;302;50.206;8.196;2023-05-23T10:55:18;7.10;;;6.50;;
635;SDS011;302;50.206;8.196;2023-05-23T10:57:44;9.10;;;8.30;;
635;SDS011;302;50.206;8.196;2023-05-23T11:00:13;7.40;;;6.80;;
635;SDS011;302;50.206;8.196;2023-05-23T11:02:40;8.15;;;7.45;;
635;SDS011;302;50.206;8.196;2023-05-23T11:05:18;7.10;;;6.50;;
635;SDS011;302;50.206;8.196;2023-05-23T11:07:48;8.85;;;7.00;;
635;SDS011;302;50.206;8.196;2023-05-23T11:10:30;8.23;;;7.43;;
635;SDS011;302;50.206;8.196;2023-05-23T11:12:55;8.88;;;8.07;;
635;SDS011;302;50.206;8.196;2023-05-23T11:15:39;8.80;;;8.00;;
635;SDS011;302;50.206;8.196;2023-05-23T11:18:05;8.50;;;7.82;;
635;SDS011;302;50.206;8.196;2023-05-23T11:20:30;7.53;;;6.93;;
635;SDS011;302;50.206;8.196;2023-05-23T11:22:59;7.70;;;7.00;;
635;SDS011;302;50.206;8.196;2023-05-23T11:25:41;7.57;;;6.95;;
635;SDS011;302;50.206;8.196;2023-05-23T11:28:07;8.18;;;7.10;;
635;SDS011;302;50.206;8.196;2023-05-23T11:30:32;7.63;;;6.97;;
635;SDS011;302;50.206;8.196;2023-05-23T11:32:59;7.70;;;7.00;;
635;SDS011;302;50.206;8.196;2023-05-23T11:35:24;7.80;;;7.10;;
635;SDS011;302;50.206;8.196;2023-05-23T11:37:50;7.57;;;6.88;;
635;SDS011;302;50.206;8.196;2023-05-23T11:42:53;6.72;;;6.00;;
635;SDS011;302;50.206;8.196;2023-05-23T11:45:19;7.60;;;6.40;;
635;SDS011;302;50.206;8.196;2023-05-23T11:47:44;7.47;;;6.73;;
635;SDS011;302;50.206;8.196;2023-05-23T11:50:10;6.17;;;5.57;;
635;SDS011;302;50.206;8.196;2023-05-23T11:52:35;6.03;;;5.53;;
635;SDS011;302;50.206;8.196;2023-05-23T11:55:00;5.83;;;5.33;;
635;SDS011;302;50.206;8.196;2023-05-23T11:57:25;6.47;;;5.97;;
635;SDS011;302;50.206;8.196;2023-05-23T11:59:50;6.30;;;5.80;;
635;SDS011;302;50.206;8.196;2023-05-23T12:02:16;5.88;;;5.47;;
635;SDS011;302;50.206;8.196;2023-05-23T12:04:41;6.68;;;6.07;;
635;SDS011;302;50.206;8.196;2023-05-23T12:07:06;6.60;;;6.10;;
635;SDS011;302;50.206;8.196;2023-05-23T12:09:31;6.30;;;5.70;;
635;SDS011;302;50.206;8.196;2023-05-23T12:11:56;6.67;;;5.97;;
635;SDS011;302;50.206;8.196;2023-05-23T12:14:22;6.40;;;5.80;;
635;SDS011;302;50.206;8.196;2023-05-23T12:16:47;5.40;;;4.90;;
635;SDS011;302;50.206;8.196;2023-05-23T12:19:12;6.23;;;5.73;;
635;SDS011;302;50.206;8.196;2023-05-23T12:21:48;7.13;;;5.57;;
635;SDS011;302;50.206;8.196;2023-05-23T12:24:19;5.38;;;4.95;;
635;SDS011;302;50.206;8.196;2023-05-23T12:26:46;5.40;;;5.00;;
635;SDS011;302;50.206;8.196;2023-05-23T12:29:11;7.27;;;6.67;;
635;SDS011;302;50.206;8.196;2023-05-23T12:31:36;7.70;;;5.82;;
635;SDS011;302;50.206;8.196;2023-05-23T12:34:01;6.97;;;6.27;;
635;SDS011;302;50.206;8.196;2023-05-23T12:36:28;7.30;;;6.63;;
635;SDS011;302;50.206;8.196;2023-05-23T12:39:00;6.75;;;6.15;;
635;SDS011;302;50.206;8.196;2023-05-23T12:41:25;7.75;;;7.05;;
635;SDS011;302;50.206;8.196;2023-05-23T12:43:51;7.05;;;6.40;;
635;SDS011;302;50.206;8.196;2023-05-23T12:46:17;6.80;;;6.20;;
635;SDS011;302;50.206;8.196;2023-05-23T12:48:42;6.33;;;5.83;;
635;SDS011;302;50.206;8.196;2023-05-23T12:51:07;7.28;;;6.55;;
635;SDS011;302;50.206;8.196;2023-05-23T12:53:32;6.07;;;5.57;;
635;SDS011;302;50.206;8.196;2023-05-23T12:55:58;6.13;;;5.63;;
635;SDS011;302;50.206;8.196;2023-05-23T12:58:23;5.73;;;5.30;;
635;SDS011;302;50.206;8.196;2023-05-23T13:00:49;7.47;;;6.77;;
635;SDS011;302;50.206;8.196;2023-05-23T13:03:14;6.53;;;6.00;;
635;SDS011;302;50.206;8.196;2023-05-23T13:05:41;6.90;;;6.30;;
635;SDS011;302;50.206;8.196;2023-05-23T13:08:06;6.72;;;6.13;;
635;SDS011;302;50.206;8.196;2023-05-23T13:10:31;7.03;;;6.37;;
635;SDS011;302;50.206;8.196;2023-05-23T13:12:56;6.45;;;5.90;;
635;SDS011;302;50.206;8.196;2023-05-23T13:15:22;8.03;;;6.67;;
635;SDS011;302;50.206;8.196;2023-05-23T13:17:47;6.17;;;5.63;;
635;SDS011;302;50.206;8.196;2023-05-23T13:20:13;7.30;;;6.60;;
635;SDS011;302;50.206;8.196;2023-05-23T13:22:38;5.80;;;5.33;;
635;SDS011;302;50.206;8.196;2023-05-23T13:25:04;8.77;;;8.00;;
635;SDS011;302;50.206;8.196;2023-05-23T13:27:29;9.40;;;8.53;;
635;SDS011;302;50.206;8.196;2023-05-23T13:29:54;9.00;;;8.20;;
635;SDS011;302;50.206;8.196;2023-05-23T13:32:19;9.83;;;8.93;;
635;SDS011;302;50.206;8.196;2023-05-23T13:34:44;10.90;;;9.47;;
635;SDS011;302;50.206;8.196;2023-05-23T13:37:10;10.07;;;9.02;;
635;SDS011;302;50.206;8.196;2023-05-23T13:39:35;11.00;;;10.00;;
635;SDS011;302;50.206;8.196;2023-05-23T13:42:00;10.10;;;8.80;;
635;SDS011;302;50.206;8.196;2023-05-23T13:44:25;9.45;;;8.55;;
635;SDS011;302;50.206;8.196;2023-05-23T13:46:50;9.80;;;9.00;;
635;SDS011;302;50.206;8.196;2023-05-23T13:49:15;9.90;;;8.90;;
635;SDS011;302;50.206;8.196;2023-05-23T13:51:40;10.20;;;9.20;;
635;SDS011;302;50.206;8.196;2023-05-23T13:54:07;11.82;;;10.55;;
635;SDS011;302;50.206;8.196;2023-05-23T13:56:32;10.98;;;9.98;;
635;SDS011;302;50.206;8.196;2023-05-23T13:58:57;11.47;;;10.37;;
635;SDS011;302;50.206;8.196;2023-05-23T14:01:23;15.17;;;12.70;;
635;SDS011;302;50.206;8.196;2023-05-23T14:03:48;13.17;;;11.87;;
635;SDS011;302;50.206;8.196;2023-05-23T14:06:13;14.57;;;13.02;;
635;SDS011;302;50.206;8.196;2023-05-23T14:08:38;14.57;;;13.07;;
635;SDS011;302;50.206;8.196;2023-05-23T14:11:03;12.43;;;11.13;;
635;SDS011;302;50.206;8.196;2023-05-23T14:13:29;14.70;;;12.37;;
635;SDS011;302;50.206;8.196;2023-05-23T14:15:54;12.85;;;11.55;;
635;SDS011;302;50.206;8.196;2023-05-23T14:18:19;14.80;;;11.03;;
635;SDS011;302;50.206;8.196;2023-05-23T14:20:44;12.47;;;10.80;;
635;SDS011;302;50.206;8.196;2023-05-23T14:23:09;11.10;;;10.00;;
635;SDS011;302;50.206;8.196;2023-05-23T14:25:34;10.70;;;9.70;;
635;SDS011;302;50.206;8.196;2023-05-23T14:28:00;10.40;;;9.30;;
635;SDS011;302;50.206;8.196;2023-05-23T14:30:25;10.20;;;7.77;;
635;SDS011;302;50.206;8.196;2023-05-23T14:32:50;8.30;;;7.60;;
635;SDS011;302;50.206;8.196;2023-05-23T14:35:15;7.83;;;7.10;;
635;SDS011;302;50.206;8.196;2023-05-23T14:37:41;7.07;;;6.47;;
635;SDS011;302;50.206;8.196;2023-05-23T14:40:06;6.47;;;5.97;;
635;SDS011;302;50.206;8.196;2023-05-23T14:42:33;5.95;;;5.45;;
635;SDS011;302;50.206;8.196;2023-05-23T14:44:59;7.37;;;6.10;;
635;SDS011;302;50.206;8.196;2023-05-23T14:47:24;6.03;;;5.50;;
635;SDS011;302;50.206;8.196;2023-05-23T14:49:49;6.57;;;6.03;;
635;SDS011;302;50.206;8.196;2023-05-23T14:52:15;5.40;;;5.00;;
635;SDS011;302;50.206;8.196;2023-05-23T14:54:40;6.27;;;5.77;;
635;SDS011;302;50.206;8.196;2023-05-23T14:57:07;5.80;;;5.30;;
635;SDS011;302;50.206;8.196;2023-05-23T14:59:33;5.50;;;5.00;;
635;SDS011;302;50.206;8.196;2023-05-23T15:01:58;5.57;;;4.83;;
635;SDS011;302;50.206;8.196;2023-05-23T15:04:23;6.33;;;5.70;;
635;SDS011;302;50.206;8.196;2023-05-23T15:06:48;5.70;;;4.60;;
635;SDS011;302;50.206;8.196;2023-05-23T15:09:15;5.67;;;4.80;;
635;SDS011;302;50.206;8.196;2023-05-23T15:11:40;5.20;;;4.53;;
635;SDS011;302;50.206;8.196;2023-05-23T15:14:08;5.33;;;4.83;;
635;SDS011;302;50.206;8.196;2023-05-23T15:16:33;6.33;;;5.20;;
635;SDS011;302;50.206;8.196;2023-05-23T15:19:00;5.07;;;4.27;;
635;SDS011;302;50.206;8.196;2023-05-23T15:21:26;5.03;;;4.50;;
635;SDS011;302;50.206;8.196;2023-05-23T15:23:51;5.13;;;4.50;;
635;SDS011;302;50.206;8.196;2023-05-23T15:26:16;5.33;;;4.93;;
635;SDS011;302;50.206;8.196;2023-05-23T15:28:42;5.33;;;4.80;;
635;SDS011;302;50.206;8.196;2023-05-23T15:31:07;5.10;;;4.60;;
635;SDS011;302;50.206;8.196;2023-05-23T15:33:32;5.53;;;5.03;;
635;SDS011;302;50.206;8.196;2023-05-23T15:35:57;5.10;;;4.70;;
635;SDS011;302;50.206;8.196;2023-05-23T15:38:23;6.70;;;5.60;;